createdAt,value
2019-01-14T00:04:02.756Z,99.90
2019-01-14T00:08:54.163Z,99.90
2019-01-14T00:13:45.509Z,99.90
2019-01-14T00:18:36.937Z,99.90
2019-01-14T00:23:28.312Z,99.90
2019-01-14T00:28:19.685Z,99.90
2019-01-14T00:33:11.047Z,99.90
2019-01-14T00:38:02.538Z,99.90
2019-01-14T00:42:53.864Z,99.90
2019-01-14T00:47:45.288Z,99.90
2019-01-14T00:52:36.595Z,99.90
2019-01-14T00:57:28.052Z,99.90
2019-01-14T01:02:19.351Z,99.90
2019-01-14T01:07:10.869Z,99.90
2019-01-14T01:12:02.148Z,99.90
2019-01-14T01:16:53.535Z,99.90
2019-01-14T01:21:44.988Z,99.90
2019-01-14T01:26:36.404Z,99.90
2019-01-14T01:31:27.748Z,99.90
2019-01-14T01:36:19.246Z,99.40
2019-01-14T01:41:10.531Z,99.30
2019-01-14T01:46:01.980Z,99.00
2019-01-14T01:50:53.290Z,97.40
2019-01-14T01:55:44.722Z,94.10
2019-01-14T02:00:36.088Z,83.60
2019-01-14T02:05:27.435Z,85.60
2019-01-14T02:10:18.859Z,86.30
2019-01-14T02:15:10.234Z,87.50
2019-01-14T02:20:01.782Z,90.30
2019-01-14T02:24:53.032Z,92.70
2019-01-14T02:29:44.408Z,95.80
2019-01-14T02:34:35.802Z,96.90
2019-01-14T02:39:27.190Z,95.70
2019-01-14T02:44:18.551Z,94.90
2019-01-14T02:49:10.009Z,95.80
2019-01-14T02:54:01.382Z,94.70
2019-01-14T02:58:52.671Z,92.00
2019-01-14T03:03:44.027Z,91.10
2019-01-14T03:08:35.463Z,92.70
2019-01-14T03:13:26.842Z,90.90
2019-01-14T03:18:18.225Z,90.50
2019-01-14T03:23:09.544Z,90.70
2019-01-14T03:28:00.940Z,90.80
2019-01-14T03:32:52.371Z,91.80
2019-01-14T03:37:43.758Z,93.00
2019-01-14T03:42:35.079Z,92.10
2019-01-14T03:47:26.502Z,91.00
2019-01-14T03:52:17.945Z,92.00
2019-01-14T03:57:09.263Z,89.50
2019-01-14T04:02:00.589Z,90.40
2019-01-14T04:06:52.062Z,90.70
2019-01-14T04:11:43.470Z,91.50
2019-01-14T04:16:34.851Z,90.10
2019-01-14T04:21:26.195Z,92.40
2019-01-14T04:26:17.582Z,93.80
2019-01-14T04:31:09.058Z,94.10
2019-01-14T04:36:00.346Z,94.20
2019-01-14T04:40:51.792Z,94.20
2019-01-14T04:45:43.131Z,94.70
2019-01-14T04:50:34.542Z,95.10
2019-01-14T04:55:25.862Z,95.00
2019-01-14T05:00:21.872Z,93.80
2019-01-14T05:05:13.362Z,94.60
2019-01-14T05:10:04.785Z,92.90
2019-01-14T05:14:56.114Z,92.00
2019-01-14T05:19:47.561Z,92.50
2019-01-14T05:24:38.930Z,92.30
2019-01-14T05:29:30.422Z,93.20
2019-01-14T05:34:21.692Z,91.30
2019-01-14T05:39:13.145Z,91.10
2019-01-14T05:44:04.508Z,92.90
2019-01-14T05:48:55.832Z,91.90
2019-01-14T05:53:47.230Z,91.30
2019-01-14T05:58:38.587Z,91.90
2019-01-14T06:03:29.993Z,91.90
2019-01-14T06:08:21.401Z,91.90
2019-01-14T06:13:12.738Z,92.10
2019-01-14T06:18:04.100Z,92.50
2019-01-14T06:22:55.526Z,92.70
2019-01-14T06:27:47.114Z,92.90
2019-01-14T06:32:38.304Z,93.10
2019-01-14T06:37:29.640Z,93.70
2019-01-14T06:42:21.114Z,93.70
2019-01-14T06:47:12.438Z,94.20
2019-01-14T06:52:03.906Z,94.30
2019-01-14T06:56:55.170Z,94.70
2019-01-14T07:01:46.759Z,94.50
2019-01-14T07:06:38.089Z,93.40
2019-01-14T07:11:29.504Z,93.40
2019-01-14T07:16:20.805Z,93.00
2019-01-14T07:21:12.208Z,92.90
2019-01-14T07:26:03.579Z,91.50
2019-01-14T07:30:55.024Z,91.20
2019-01-14T07:35:46.314Z,92.00
2019-01-14T07:40:37.761Z,91.10
2019-01-14T07:45:29.099Z,91.60
2019-01-14T07:50:20.470Z,92.00
2019-01-14T07:55:11.863Z,92.00
2019-01-14T08:00:03.223Z,91.50
2019-01-14T08:04:54.653Z,91.90
2019-01-14T08:09:46.062Z,91.50
2019-01-14T08:14:37.405Z,91.10
2019-01-14T08:19:28.829Z,92.10
2019-01-14T08:24:20.231Z,89.90
2019-01-14T08:29:11.583Z,91.20
2019-01-14T08:34:02.944Z,91.00
2019-01-14T08:38:56.871Z,90.50
2019-01-14T08:43:48.255Z,91.00
2019-01-14T08:48:39.675Z,88.90
2019-01-14T08:53:31.000Z,87.50
2019-01-14T08:58:22.424Z,83.80
2019-01-14T09:03:13.831Z,85.60
2019-01-14T09:08:05.129Z,84.70
2019-01-14T09:12:56.615Z,85.40
2019-01-14T09:17:47.963Z,85.80
2019-01-14T09:22:39.321Z,84.70
2019-01-14T09:27:30.711Z,84.70
2019-01-14T09:32:22.088Z,84.70
2019-01-14T09:37:13.508Z,83.10
2019-01-14T09:42:04.864Z,84.40
2019-01-14T09:46:56.225Z,85.00
2019-01-14T09:51:47.567Z,86.50
2019-01-14T09:56:39.026Z,85.60
2019-01-14T10:01:30.407Z,87.30
2019-01-14T10:06:21.755Z,87.70
2019-01-14T10:11:13.109Z,83.60
2019-01-14T10:16:04.574Z,85.00
2019-01-14T10:20:55.981Z,86.20
2019-01-14T10:25:47.360Z,86.00
2019-01-14T10:30:38.775Z,86.00
2019-01-14T10:35:30.107Z,85.20
2019-01-14T10:40:21.489Z,83.90
2019-01-14T10:45:12.811Z,84.50
2019-01-14T10:50:04.221Z,85.10
2019-01-14T10:54:55.570Z,83.40
2019-01-14T10:59:47.021Z,86.00
2019-01-14T11:04:38.341Z,85.90
2019-01-14T11:09:29.745Z,87.20
2019-01-14T11:14:21.110Z,86.90
2019-01-14T11:19:12.555Z,87.40
2019-01-14T11:24:03.912Z,88.00
2019-01-14T11:28:55.255Z,89.70
2019-01-14T11:33:46.657Z,87.60
2019-01-14T11:38:38.107Z,87.60
2019-01-14T11:43:29.437Z,84.80
2019-01-14T11:48:20.795Z,85.40
2019-01-14T11:53:12.203Z,83.70
2019-01-14T11:58:03.581Z,82.80
2019-01-14T12:02:55.015Z,83.30
2019-01-14T12:07:46.399Z,82.50
2019-01-14T12:12:37.739Z,84.20
2019-01-14T12:17:29.132Z,83.80
2019-01-14T12:22:20.529Z,83.70
2019-01-14T12:27:11.809Z,80.70
2019-01-14T12:32:03.247Z,83.80
2019-01-14T12:36:54.621Z,82.20
2019-01-14T12:41:51.587Z,81.90
2019-01-14T12:46:37.418Z,84.40
2019-01-14T12:51:28.767Z,82.40
2019-01-14T12:56:20.267Z,82.40
2019-01-14T13:01:11.528Z,79.10
2019-01-14T13:06:02.949Z,77.40
2019-01-14T13:10:54.321Z,78.10
2019-01-14T13:15:45.711Z,77.40
2019-01-14T13:20:37.021Z,81.60
2019-01-14T13:25:28.454Z,87.40
2019-01-14T13:30:19.791Z,95.50
2019-01-14T13:35:11.207Z,97.40
2019-01-14T13:40:02.509Z,97.70
2019-01-14T13:44:53.966Z,99.90
2019-01-14T13:49:45.309Z,99.90
2019-01-14T13:54:36.863Z,99.90
2019-01-14T13:59:28.055Z,99.90
2019-01-14T14:04:19.468Z,99.90
2019-01-14T14:09:10.816Z,99.10
2019-01-14T14:14:02.362Z,99.90
2019-01-14T14:18:53.539Z,99.90
2019-01-14T14:23:45.021Z,99.90
2019-01-14T14:28:36.316Z,98.50
2019-01-14T14:33:27.806Z,98.80
2019-01-14T14:38:19.107Z,99.50
2019-01-14T14:43:10.570Z,99.80
2019-01-14T14:48:01.880Z,99.90
2019-01-14T14:52:53.716Z,99.80
2019-01-14T14:57:44.622Z,99.90
2019-01-14T15:02:36.127Z,99.40
2019-01-14T15:07:27.475Z,99.30
2019-01-14T15:12:19.306Z,99.30
2019-01-14T15:17:10.217Z,98.80
2019-01-14T15:22:01.614Z,99.90
2019-01-14T15:26:52.953Z,99.30
2019-01-14T15:31:44.415Z,98.80
2019-01-14T15:36:35.728Z,99.80
2019-01-14T15:41:27.175Z,99.90
2019-01-14T15:46:18.466Z,99.90
2019-01-14T15:51:09.990Z,99.90
2019-01-14T15:56:01.259Z,99.90
2019-01-14T16:00:52.723Z,99.90
2019-01-14T16:05:44.023Z,99.90
2019-01-14T16:10:35.528Z,99.90
2019-01-14T16:15:26.859Z,99.90
2019-01-14T16:20:18.308Z,99.90
2019-01-14T16:25:09.538Z,99.90
2019-01-14T16:30:04.213Z,99.90
2019-01-14T16:34:54.650Z,99.90
2019-01-14T16:39:46.105Z,99.90
2019-01-14T16:44:37.379Z,99.90
2019-01-14T16:49:28.846Z,99.90
2019-01-14T16:54:20.205Z,99.90
2019-01-14T17:04:02.956Z,99.90
2019-01-14T17:08:54.913Z,99.90
2019-01-14T17:13:45.690Z,99.90
2019-01-14T17:18:37.144Z,99.90
2019-01-14T17:23:28.487Z,99.90
2019-01-14T17:28:20.063Z,99.90
2019-01-14T17:33:11.282Z,99.90
2019-01-14T17:38:02.662Z,99.90
2019-01-14T17:42:53.979Z,99.90
2019-01-14T17:47:45.451Z,99.90
2019-01-14T17:52:36.757Z,99.90
2019-01-14T17:57:28.294Z,99.90
2019-01-14T18:02:19.589Z,99.20
2019-01-14T18:07:11.063Z,99.40
2019-01-14T18:12:02.362Z,99.90
2019-01-14T18:16:53.853Z,99.40
2019-01-14T18:21:45.254Z,99.50
2019-01-14T18:26:49.254Z,98.20
2019-01-14T18:31:27.927Z,97.70
2019-01-14T18:36:19.367Z,99.10
2019-01-14T18:41:10.646Z,96.90
2019-01-14T18:46:02.161Z,97.70
2019-01-14T18:50:56.045Z,97.20
2019-01-14T18:55:44.880Z,96.70
2019-01-14T19:00:36.254Z,96.50
2019-01-14T19:05:27.652Z,97.20
2019-01-14T19:10:18.974Z,97.60
2019-01-14T19:15:10.386Z,98.20
2019-01-14T19:20:01.806Z,96.90
2019-01-14T19:24:53.142Z,96.70
2019-01-14T19:29:44.517Z,95.70
2019-01-14T19:34:35.916Z,94.50
2019-01-14T19:39:27.299Z,93.80
2019-01-14T19:44:18.754Z,96.10
2019-01-14T19:49:10.082Z,93.10
2019-01-14T19:54:01.521Z,91.60
2019-01-14T19:58:55.061Z,93.60
2019-01-14T20:03:44.329Z,92.50
2019-01-14T20:08:35.612Z,91.60
2019-01-14T20:13:27.068Z,90.90
2019-01-14T20:18:18.351Z,92.40
2019-01-14T20:23:09.798Z,92.80
2019-01-14T20:28:01.144Z,90.30
2019-01-14T20:32:52.537Z,90.50
2019-01-14T20:37:43.871Z,90.90
2019-01-14T20:42:35.972Z,92.60
2019-01-14T20:47:26.744Z,91.80
2019-01-14T20:52:18.150Z,89.70
2019-01-14T20:57:09.561Z,90.20
2019-01-14T21:02:00.940Z,91.20
2019-01-14T21:06:53.437Z,91.50
2019-01-14T21:11:43.696Z,92.30
2019-01-14T21:16:35.232Z,90.70
2019-01-14T21:21:26.635Z,91.10
2019-01-14T21:26:17.923Z,91.80
2019-01-14T21:31:09.339Z,92.60
2019-01-14T21:41:02.264Z,94.20
2019-01-14T21:45:50.361Z,95.70
2019-01-14T21:50:44.014Z,96.40
2019-01-14T21:55:36.031Z,96.00
2019-01-14T22:00:31.371Z,96.20
2019-01-14T22:05:34.098Z,96.10
2019-01-14T22:10:25.595Z,96.30
2019-01-14T22:15:26.128Z,97.00
2019-01-14T22:20:17.441Z,99.40
2019-01-14T22:25:08.945Z,98.20
2019-01-14T22:30:00.498Z,98.20
2019-01-14T22:34:51.660Z,98.00
2019-01-14T22:39:42.974Z,96.30
2019-01-14T22:44:36.612Z,97.20
2019-01-14T22:49:28.068Z,97.40
2019-01-14T22:54:19.496Z,97.00
2019-01-14T22:59:10.799Z,97.00
2019-01-14T23:04:02.262Z,97.50
2019-01-14T23:08:53.612Z,97.90
2019-01-14T23:13:45.029Z,98.70
2019-01-14T23:18:38.561Z,99.60
2019-01-14T23:23:32.237Z,99.60
2019-01-14T23:28:28.185Z,99.10
2019-01-14T23:33:19.696Z,99.70
2019-01-14T23:38:13.202Z,98.90
2019-01-14T23:43:04.660Z,99.20
2019-01-14T23:47:56.108Z,98.20
2019-01-14T23:52:49.757Z,98.00
2019-01-14T23:57:41.269Z,98.30
